ADDS METAR Data INFO
IDs: Format: Raw Decoded Include TAF

Data at: 0854 UTC 27 Jun 2017

METAR for:KHLX (Hillsville/Twin Cnty, VA, US)
Text:KHLX 270835Z AUTO 00000KT 10SM CLR 14/09 A3012 RMK AO2 T01350087
Temperature: 13.5°C ( 56°F)
Dewpoint: 8.7°C ( 48°F) [RH = 73%]
Pressure (altimeter):30.12 inches Hg (1020.1 mb)
Winds:calm
Visibility:10 or more sm (16+ km)
Ceiling:at least 12,000 feet AGL
Clouds:sky clear below 12,000 feet AGL
QC Flag:automated observation with no human augmentation


Page loaded:  08:54 UTC  |   01:54 AM Pacific  |   02:54 AM Mountain  |   03:54 AM Central  |   04:54 AM Eastern

 

ADVISORIES

FORECASTS

FORECASTS

OBSERVATIONS

USER TOOLS

ABOUT US